Time;durP1;ratioP1;P1;durP2;ratioP2;P2;SDS_P1;SDS_P2;PMS_P1;PMS_P2;Temp;Humidity;BMP_temperature;BMP_pressure;BME280_temperature;BME280_humidity;BME280_pressure;Samples;Min_cycle;Max_cycle;Signal;HPM_P1;HPM_P2
2022/08/04 00:00:38;;;;;;;7.93;3.50;;;16.20;99.90;;;;;;8304220;28;20026;-77
2022/08/04 00:04:52;;;;;;;4.78;3.10;;;15.90;99.90;;;;;;8314677;28;20458;-77
2022/08/04 00:08:59;;;;;;;3.50;2.80;;;15.90;99.90;;;;;;8304648;28;20393;-77
2022/08/04 00:13:03;;;;;;;3.15;2.85;;;15.80;99.90;;;;;;8303619;28;20064;-77
2022/08/04 00:17:05;;;;;;;3.58;3.15;;;16.00;99.90;;;;;;8305174;28;20105;-76
2022/08/04 00:21:11;;;;;;;5.63;3.33;;;16.00;99.90;;;;;;8312555;28;20473;-77
2022/08/04 00:25:11;;;;;;;5.03;3.15;;;16.00;99.90;;;;;;8303993;28;20030;-77
2022/08/04 00:29:12;;;;;;;3.42;3.13;;;15.90;99.90;;;;;;8304150;28;20914;-77
2022/08/04 00:33:18;;;;;;;4.53;3.33;;;15.70;99.90;;;;;;8303516;28;20111;-77
2022/08/04 00:37:21;;;;;;;5.60;3.30;;;15.60;99.90;;;;;;8300988;28;20025;-77
2022/08/04 00:41:29;;;;;;;5.57;3.28;;;15.70;99.90;;;;;;8308808;28;20029;-77
2022/08/04 00:45:55;;;;;;;4.75;3.17;;;15.60;99.90;;;;;;8327632;28;20121;-77
2022/08/04 00:50:34;;;;;;;5.90;3.30;;;15.40;99.90;;;;;;8302954;28;20028;-77
2022/08/04 00:55:00;;;;;;;4.38;3.03;;;15.30;99.90;;;;;;8308263;28;20044;-77
2022/08/04 00:59:22;;;;;;;5.10;3.65;;;15.30;99.90;;;;;;8305822;28;20018;-76
2022/08/04 01:03:47;;;;;;;5.32;3.38;;;15.40;99.90;;;;;;8311804;28;20628;-78
2022/08/04 01:07:56;;;;;;;3.88;3.25;;;15.40;99.90;;;;;;8313100;28;20032;-77
2022/08/04 01:12:30;;;;;;;5.70;4.00;;;15.30;99.90;;;;;;8306649;28;20075;-75
2022/08/04 01:16:33;;;;;;;4.60;3.50;;;15.40;99.90;;;;;;8302105;28;20022;-76
2022/08/04 01:20:49;;;;;;;4.90;3.30;;;15.40;99.90;;;;;;8314384;28;20474;-78
2022/08/04 01:25:24;;;;;;;3.80;3.40;;;15.40;99.90;;;;;;8299416;28;20022;-77
2022/08/04 01:29:36;;;;;;;4.35;3.28;;;15.40;99.90;;;;;;8306161;28;20021;-77
2022/08/04 01:33:38;;;;;;;6.28;3.67;;;15.40;99.90;;;;;;8297394;28;20413;-77
2022/08/04 01:37:52;;;;;;;3.83;3.42;;;15.40;99.90;;;;;;8294921;28;20029;-77
2022/08/04 01:41:55;;;;;;;6.10;3.42;;;15.20;99.90;;;;;;8302413;28;20057;-78
2022/08/04 01:45:58;;;;;;;5.30;3.72;;;15.10;99.90;;;;;;8304185;28;20045;-78
2022/08/04 01:50:10;;;;;;;5.07;3.70;;;14.90;99.90;;;;;;8298276;28;20026;-78
2022/08/04 01:54:14;;;;;;;5.35;3.28;;;14.90;99.90;;;;;;8307932;28;20516;-78
2022/08/04 01:58:19;;;;;;;4.90;3.97;;;14.90;99.90;;;;;;8302083;28;20079;-78
2022/08/04 02:02:23;;;;;;;3.90;3.35;;;14.90;99.90;;;;;;8310543;28;20025;-78
2022/08/04 02:06:48;;;;;;;3.35;2.90;;;14.90;99.90;;;;;;8317525;28;20053;-78
2022/08/04 02:11:19;;;;;;;4.25;2.88;;;15.00;99.90;;;;;;8309959;28;20083;-79
2022/08/04 02:15:27;;;;;;;3.97;3.57;;;14.90;99.90;;;;;;8307578;28;20424;-79
2022/08/04 02:19:34;;;;;;;3.72;3.05;;;14.80;99.90;;;;;;8306469;28;20025;-78
2022/08/04 02:23:37;;;;;;;4.63;3.63;;;15.00;99.90;;;;;;8318264;28;20049;-78
2022/08/04 02:28:02;;;;;;;4.15;2.80;;;15.00;99.90;;;;;;8303997;28;20029;-78
2022/08/04 02:32:06;;;;;;;5.65;3.35;;;15.00;99.90;;;;;;8296344;28;20034;-78
2022/08/04 02:36:14;;;;;;;4.13;3.15;;;15.00;99.90;;;;;;8302148;28;20029;-77
2022/08/04 02:40:19;;;;;;;4.80;3.50;;;14.80;99.90;;;;;;8309058;28;20145;-79
2022/08/04 02:44:22;;;;;;;4.18;3.67;;;14.70;99.90;;;;;;8312507;28;20544;-78
2022/08/04 02:48:25;;;;;;;4.57;3.60;;;14.60;99.90;;;;;;8308528;28;20041;-78
2022/08/04 02:52:28;;;;;;;5.03;3.50;;;14.50;99.90;;;;;;8312997;28;20057;-77
2022/08/04 02:56:30;;;;;;;4.95;3.35;;;14.70;99.90;;;;;;8316585;28;20053;-78
2022/08/04 03:00:32;;;;;;;4.28;3.40;;;14.80;99.90;;;;;;8302857;28;20009;-78
2022/08/04 03:04:57;;;;;;;5.30;3.60;;;15.00;99.90;;;;;;8299129;28;20482;-79
2022/08/04 03:09:21;;;;;;;4.85;3.40;;;14.80;99.90;;;;;;8324005;28;20029;-78
2022/08/04 03:13:45;;;;;;;4.18;3.22;;;14.50;99.90;;;;;;8311189;28;20017;-78
2022/08/04 03:18:04;;;;;;;6.35;4.22;;;14.30;99.90;;;;;;8302948;28;20092;-79
2022/08/04 03:22:11;;;;;;;4.68;3.70;;;14.20;99.90;;;;;;8301787;28;20025;-78
2022/08/04 03:26:42;;;;;;;8.32;3.47;;;14.30;99.90;;;;;;8310153;28;20505;-78
2022/08/04 03:30:46;;;;;;;;;;;14.50;99.90;;;;;;8304712;28;20026;-77
2022/08/04 03:35:33;;;;;;;4.38;3.22;;;14.50;99.90;;;;;;8308279;28;19913;-80
2022/08/04 03:39:49;;;;;;;3.53;3.03;;;14.30;99.90;;;;;;8304411;28;20028;-78
2022/08/04 03:44:25;;;;;;;4.80;3.22;;;14.10;99.90;;;;;;8317530;28;20031;-78
2022/08/04 03:48:44;;;;;;;3.47;3.17;;;14.00;99.90;;;;;;8320229;28;20041;-78
2022/08/04 03:53:08;;;;;;;4.15;3.22;;;14.40;99.90;;;;;;8313081;28;20060;-78
2022/08/04 03:57:29;;;;;;;5.25;3.22;;;14.30;99.90;;;;;;8317729;28;20021;-87
2022/08/04 04:01:43;;;;;;;3.67;3.30;;;14.20;99.90;;;;;;8310048;28;20109;-87
2022/08/04 04:06:13;;;;;;;4.30;3.65;;;14.10;99.90;;;;;;8318952;28;20025;-87
2022/08/04 04:10:43;;;;;;;4.68;3.30;;;14.30;99.90;;;;;;8315466;28;20025;-87
2022/08/04 04:15:03;;;;;;;3.78;3.30;;;14.20;99.90;;;;;;8306824;28;20021;-88
2022/08/04 04:19:22;;;;;;;4.30;3.17;;;14.10;99.90;;;;;;8311399;28;20030;-88
2022/08/04 04:23:54;;;;;;;4.82;3.45;;;14.20;99.90;;;;;;8317397;28;20025;-87
2022/08/04 04:28:28;;;;;;;6.03;3.67;;;14.20;99.90;;;;;;8314878;28;20029;-87
2022/08/04 04:32:53;;;;;;;5.40;3.88;;;14.30;99.90;;;;;;8314592;28;20036;-88
2022/08/04 04:37:20;;;;;;;6.15;3.50;;;14.40;99.90;;;;;;8311650;28;20497;-88
2022/08/04 04:41:30;;;;;;;5.15;3.33;;;14.50;99.90;;;;;;8301340;28;20014;-88
2022/08/04 04:45:54;;;;;;;4.75;3.50;;;14.80;99.90;;;;;;8311499;28;20648;-88
2022/08/04 04:50:17;;;;;;;5.65;3.33;;;15.00;99.90;;;;;;8303605;28;20029;-88
2022/08/04 04:54:17;;;;;;;4.07;3.08;;;15.40;99.90;;;;;;8313720;28;20470;-87
2022/08/04 04:58:20;;;;;;;6.45;3.30;;;15.60;99.90;;;;;;8311676;28;20071;-87
2022/08/04 05:02:39;;;;;;;5.80;3.30;;;15.90;99.90;;;;;;8309625;28;20029;-87
2022/08/04 05:06:53;;;;;;;4.13;3.25;;;16.30;99.90;;;;;;8323386;28;20037;-87
2022/08/04 05:10:59;;;;;;;5.53;2.85;;;16.80;99.90;;;;;;8314949;28;20029;-88
2022/08/04 05:15:04;;;;;;;4.85;3.25;;;16.80;99.90;;;;;;8309369;28;20032;-88
2022/08/04 05:19:19;;;;;;;4.95;3.22;;;17.20;99.90;;;;;;8321158;28;20017;-89
2022/08/04 05:23:25;;;;;;;3.78;3.30;;;17.30;99.90;;;;;;8310762;28;20108;-87
2022/08/04 05:27:37;;;;;;;3.30;3.00;;;17.60;99.90;;;;;;8319746;28;20028;-87
2022/08/04 05:31:47;;;;;;;6.88;3.20;;;17.80;99.90;;;;;;8309686;28;20038;-88
2022/08/04 05:35:53;;;;;;;3.33;3.03;;;17.90;99.90;;;;;;8297420;28;20022;-88
2022/08/04 05:39:57;;;;;;;3.75;2.85;;;18.20;99.90;;;;;;8318507;28;20029;-88
2022/08/04 05:43:59;;;;;;;6.40;3.42;;;18.60;99.90;;;;;;8301315;28;20021;-88
2022/08/04 05:48:05;;;;;;;3.58;3.17;;;18.80;99.90;;;;;;8316057;28;20516;-88
2022/08/04 05:52:06;;;;;;;3.63;2.90;;;19.20;99.90;;;;;;8309431;28;20030;-88
2022/08/04 05:56:08;;;;;;;3.90;3.42;;;19.40;99.90;;;;;;8305073;28;20029;-88
2022/08/04 06:00:09;;;;;;;4.85;3.55;;;20.30;99.90;;;;;;8312297;28;20029;-89
2022/08/04 06:04:11;;;;;;;5.53;3.20;;;21.30;99.90;;;;;;8304831;28;20182;-89
2022/08/04 06:08:12;;;;;;;4.55;2.97;;;22.10;99.90;;;;;;8288841;28;20048;-89
2022/08/04 06:12:27;;;;;;;5.03;3.20;;;23.30;99.90;;;;;;8300452;28;20025;-89
2022/08/04 06:16:34;;;;;;;4.15;3.00;;;24.00;99.90;;;;;;8291848;28;20026;-88
2022/08/04 06:20:37;;;;;;;5.05;3.00;;;24.50;99.90;;;;;;8298090;28;20498;-89
2022/08/04 06:24:40;;;;;;;5.18;2.90;;;25.10;99.90;;;;;;8301578;28;20030;-89
2022/08/04 06:28:42;;;;;;;3.92;3.03;;;25.70;99.90;;;;;;8304862;28;20025;-88
2022/08/04 06:32:47;;;;;;;4.32;3.00;;;25.90;99.90;;;;;;8300519;28;20061;-89
2022/08/04 06:36:48;;;;;;;3.88;3.10;;;25.70;99.90;;;;;;8302126;28;20033;-89
2022/08/04 06:40:49;;;;;;;4.32;3.00;;;25.80;99.90;;;;;;8305512;28;20022;-88
2022/08/04 06:44:58;;;;;;;2.75;2.55;;;26.30;99.90;;;;;;8310184;28;20065;-89
2022/08/04 06:48:59;;;;;;;5.43;3.10;;;26.70;99.90;;;;;;8300497;28;20036;-89
2022/08/04 06:52:59;;;;;;;3.28;2.97;;;27.20;99.90;;;;;;8310803;28;20088;-89
2022/08/04 06:57:01;;;;;;;3.20;2.35;;;27.60;99.90;;;;;;8315170;28;20339;-90
2022/08/04 07:01:02;;;;;;;4.05;3.00;;;28.30;99.90;;;;;;8306943;28;20071;-90
2022/08/04 07:05:06;;;;;;;4.70;2.90;;;28.60;99.90;;;;;;8309245;28;20049;-90
2022/08/04 07:09:07;;;;;;;2.75;2.47;;;28.60;99.90;;;;;;8301661;28;20032;-90
2022/08/04 07:13:08;;;;;;;3.10;2.38;;;28.80;99.90;;;;;;8302987;28;20060;-89
2022/08/04 07:17:09;;;;;;;5.53;3.10;;;29.20;99.90;;;;;;8299881;28;20047;-90
2022/08/04 07:21:17;;;;;;;3.67;2.58;;;29.20;99.90;;;;;;8301067;28;20095;-81
2022/08/04 07:25:18;;;;;;;5.40;3.08;;;29.80;99.90;;;;;;8294910;28;20401;-80
2022/08/04 07:29:18;;;;;;;3.55;3.13;;;30.20;99.90;;;;;;8303359;28;20033;-81
2022/08/04 07:33:19;;;;;;;3.28;2.97;;;30.20;99.90;;;;;;8303557;28;20033;-81
2022/08/04 07:37:20;;;;;;;3.53;3.20;;;30.20;99.90;;;;;;8303557;28;20478;-80
2022/08/04 07:41:23;;;;;;;3.15;2.85;;;29.60;99.90;;;;;;8304701;28;20121;-81
2022/08/04 07:45:24;;;;;;;3.67;3.05;;;29.80;99.90;;;;;;8309886;28;20033;-80
2022/08/04 07:49:25;;;;;;;3.50;3.20;;;29.90;99.90;;;;;;8310491;28;20029;-81
2022/08/04 07:53:26;;;;;;;3.95;3.30;;;30.00;99.90;;;;;;8304548;28;20029;-80
2022/08/04 07:57:27;;;;;;;4.25;3.35;;;30.10;99.90;;;;;;8306511;28;20032;-81
2022/08/04 08:01:28;;;;;;;7.32;3.47;;;30.30;99.90;;;;;;8304158;28;20021;-81
2022/08/04 08:05:29;;;;;;;5.40;3.30;;;30.50;99.90;;;;;;8309117;28;20188;-81
2022/08/04 08:09:32;;;;;;;6.85;3.50;;;31.00;99.90;;;;;;8316594;28;20037;-81
2022/08/04 08:13:34;;;;;;;5.55;3.35;;;31.20;99.90;;;;;;8297058;28;20048;-81
2022/08/04 08:17:35;;;;;;;4.15;3.65;;;31.30;99.90;;;;;;8292702;28;20030;-82
2022/08/04 08:21:36;;;;;;;4.97;3.70;;;31.60;99.90;;;;;;8309380;28;20104;-81
2022/08/04 08:25:37;;;;;;;5.60;3.40;;;31.90;99.70;;;;;;8304964;28;20064;-80
2022/08/04 08:29:38;;;;;;;8.32;3.30;;;32.10;99.90;;;;;;8297891;28;20030;-81
2022/08/04 08:33:40;;;;;;;6.50;3.67;;;32.20;99.90;;;;;;8297506;28;20505;-81
2022/08/04 08:37:51;;;;;;;3.88;3.50;;;31.90;99.90;;;;;;8293386;28;20077;-81
2022/08/04 08:42:22;;;;;;;4.53;3.13;;;31.90;99.90;;;;;;8287630;28;20479;-81
2022/08/04 08:47:03;;;;;;;4.27;3.10;;;32.80;96.80;;;;;;8312337;28;20021;-82
2022/08/04 08:51:30;;;;;;;5.65;3.45;;;33.10;95.50;;;;;;8295516;28;20038;-82
2022/08/04 08:55:44;;;;;;;4.88;3.42;;;33.30;92.40;;;;;;8282102;28;20040;-90
2022/08/04 09:00:02;;;;;;;4.35;3.17;;;33.30;91.80;;;;;;8315593;28;20076;-90
2022/08/04 09:04:34;;;;;;;7.85;3.40;;;33.50;93.60;;;;;;8310559;28;20018;-91
2022/08/04 09:09:09;;;;;;;3.70;3.40;;;33.90;90.70;;;;;;8303576;28;20037;-91
2022/08/04 09:13:26;;;;;;;3.53;3.22;;;34.10;90.60;;;;;;8300775;28;20056;-91
2022/08/04 09:17:34;;;;;;;3.58;3.28;;;34.20;87.00;;;;;;8316077;28;20036;-91
2022/08/04 09:21:46;;;;;;;5.35;3.50;;;34.30;89.30;;;;;;8308082;28;20032;-91
2022/08/04 09:25:56;;;;;;;3.65;3.03;;;34.00;84.20;;;;;;8318333;28;20079;-90
2022/08/04 09:30:09;;;;;;;3.28;3.08;;;34.30;90.60;;;;;;8302066;28;20025;-91
2022/08/04 09:34:42;;;;;;;3.50;3.20;;;34.40;87.50;;;;;;8298383;28;20032;-82
2022/08/04 09:39:00;;;;;;;3.88;3.45;;;34.60;84.80;;;;;;8313656;28;20052;-81
2022/08/04 09:43:42;;;;;;;3.88;3.15;;;34.60;82.00;;;;;;8299380;28;20104;-80
2022/08/04 09:47:53;;;;;;;5.60;3.42;;;34.60;87.30;;;;;;8288004;28;20145;-81
2022/08/04 09:52:16;;;;;;;4.53;3.20;;;34.40;87.70;;;;;;8298375;28;20049;-81
2022/08/04 09:56:33;;;;;;;3.63;3.33;;;34.10;84.30;;;;;;8302210;28;20029;-81
2022/08/04 10:00:42;;;;;;;3.40;3.10;;;34.30;83.10;;;;;;8291405;28;20029;-81
2022/08/04 10:04:45;;;;;;;3.70;3.40;;;34.30;81.50;;;;;;8301964;28;20030;-81
2022/08/04 10:09:12;;;;;;;3.47;3.10;;;34.60;85.20;;;;;;8304609;28;20448;-81
2022/08/04 10:13:28;;;;;;;3.58;3.17;;;34.50;79.50;;;;;;8309884;28;20021;-81
2022/08/04 10:17:41;;;;;;;3.67;2.92;;;34.40;81.10;;;;;;8285650;28;20022;-81
2022/08/04 10:22:07;;;;;;;5.15;2.78;;;34.80;80.80;;;;;;8303688;28;20099;-81
2022/08/04 10:26:38;;;;;;;3.88;2.80;;;34.90;79.60;;;;;;8301182;28;20037;-81
2022/08/04 10:31:05;;;;;;;4.40;3.13;;;34.90;77.30;;;;;;8309257;28;20038;-81
2022/08/04 10:35:16;;;;;;;5.15;3.25;;;34.60;75.40;;;;;;8305243;28;20026;-81
2022/08/04 10:39:24;;;;;;;3.30;2.95;;;34.50;75.40;;;;;;8310545;28;20596;-80
2022/08/04 10:43:47;;;;;;;4.38;2.92;;;35.10;83.70;;;;;;8309160;28;20497;-80
2022/08/04 10:48:09;;;;;;;4.45;2.67;;;35.40;72.90;;;;;;8292763;28;20026;-79
2022/08/04 10:52:29;;;;;;;4.60;2.63;;;34.50;77.90;;;;;;8286658;28;20607;-80
2022/08/04 10:56:41;;;;;;;3.40;2.20;;;36.10;68.40;;;;;;8305256;28;20026;-81
2022/08/04 11:00:44;;;;;;;3.80;2.30;;;37.50;64.00;;;;;;8300286;28;20061;-80
2022/08/04 11:04:49;;;;;;;6.15;2.60;;;37.90;58.00;;;;;;8306253;28;20057;-80
2022/08/04 11:08:53;;;;;;;3.58;2.13;;;37.60;60.60;;;;;;8310766;28;20018;-81
2022/08/04 11:13:00;;;;;;;2.40;2.20;;;37.60;58.40;;;;;;8296647;28;20160;-80
2022/08/04 11:17:06;;;;;;;5.78;2.80;;;37.70;57.20;;;;;;8305854;28;20021;-80
2022/08/04 11:21:19;;;;;;;3.17;2.40;;;38.50;55.10;;;;;;8298414;28;20034;-81
2022/08/04 11:25:27;;;;;;;4.18;2.38;;;39.50;56.30;;;;;;8308737;28;20022;-81
2022/08/04 11:29:55;;;;;;;3.20;2.60;;;39.10;53.40;;;;;;8304604;28;20030;-79
2022/08/04 11:34:21;;;;;;;4.03;2.10;;;38.80;54.20;;;;;;8295698;28;20255;-81
2022/08/04 11:38:59;;;;;;;3.83;2.30;;;39.50;55.70;;;;;;8304425;28;20272;-80
2022/08/04 11:43:03;;;;;;;2.42;2.17;;;39.30;54.90;;;;;;8303143;28;20116;-80
2022/08/04 11:47:10;;;;;;;4.63;2.10;;;39.20;54.80;;;;;;8298482;28;20037;-81
2022/08/04 11:51:10;;;;;;;4.25;2.20;;;38.40;53.30;;;;;;8297647;28;20044;-81
2022/08/04 11:55:15;;;;;;;2.10;2.00;;;38.50;56.30;;;;;;8297780;28;20026;-80
2022/08/04 11:59:17;;;;;;;3.15;2.10;;;39.90;52.10;;;;;;8300106;28;20311;-79
2022/08/04 12:03:29;;;;;;;6.88;2.40;;;39.40;48.80;;;;;;8307048;28;20026;-81
2022/08/04 12:07:42;;;;;;;2.25;2.10;;;39.30;52.30;;;;;;8315404;28;20067;-80
2022/08/04 12:11:55;;;;;;;4.32;2.33;;;40.30;48.10;;;;;;8295978;28;20026;-81
2022/08/04 12:16:26;;;;;;;2.45;2.25;;;40.50;52.70;;;;;;8304899;28;20063;-80
2022/08/04 12:20:29;;;;;;;2.95;2.38;;;40.10;49.90;;;;;;8307392;28;20025;-80
2022/08/04 12:24:37;;;;;;;2.63;2.28;;;41.00;49.50;;;;;;8304011;28;20041;-80
2022/08/04 12:28:40;;;;;;;3.13;2.10;;;40.90;53.50;;;;;;8301983;28;20437;-81
2022/08/04 12:32:46;;;;;;;3.25;2.55;;;41.10;46.30;;;;;;8297440;28;20686;-80
2022/08/04 12:36:56;;;;;;;5.20;2.60;;;42.00;46.80;;;;;;8303474;28;20080;-81
2022/08/04 12:41:02;;;;;;;3.30;2.67;;;41.30;47.80;;;;;;8299049;28;20085;-81
2022/08/04 12:45:07;;;;;;;3.45;2.20;;;41.90;46.90;;;;;;8299161;28;20022;-80
2022/08/04 12:49:09;;;;;;;2.15;1.95;;;41.50;46.30;;;;;;8298656;28;20029;-82
2022/08/04 12:53:12;;;;;;;7.13;2.00;;;41.70;45.10;;;;;;8306862;28;20026;-81
2022/08/04 12:57:16;;;;;;;2.65;2.00;;;42.70;44.10;;;;;;8304215;28;20545;-80
2022/08/04 13:01:21;;;;;;;1.95;1.75;;;43.60;44.00;;;;;;8306701;28;20029;-80
2022/08/04 13:05:26;;;;;;;3.47;1.80;;;44.90;40.30;;;;;;8311962;28;20026;-81
2022/08/04 13:09:31;;;;;;;2.35;1.50;;;44.20;38.50;;;;;;8303755;28;20042;-81
2022/08/04 13:13:35;;;;;;;4.93;1.60;;;43.20;41.40;;;;;;8297844;28;20489;-82
2022/08/04 13:18:00;;;;;;;2.72;1.75;;;43.50;38.40;;;;;;8304618;28;20119;-82
2022/08/04 13:22:01;;;;;;;1.90;1.70;;;44.30;36.90;;;;;;8287634;28;20056;-80
2022/08/04 13:26:03;;;;;;;4.35;2.08;;;44.60;38.80;;;;;;8298919;28;20600;-81
2022/08/04 13:30:04;;;;;;;2.65;2.00;;;44.90;38.80;;;;;;8308558;28;20046;-82
2022/08/04 13:34:08;;;;;;;2.00;1.90;;;45.20;36.80;;;;;;8307583;28;20413;-81
2022/08/04 13:38:11;;;;;;;2.28;1.90;;;46.10;36.70;;;;;;8302556;28;20113;-82
2022/08/04 13:42:14;;;;;;;3.53;1.92;;;46.40;37.70;;;;;;8300969;28;20564;-81
2022/08/04 13:46:30;;;;;;;3.03;1.60;;;46.50;34.00;;;;;;8302056;28;20110;-81
2022/08/04 13:50:32;;;;;;;2.80;1.77;;;45.70;34.90;;;;;;8303463;28;20108;-81
2022/08/04 13:54:42;;;;;;;2.67;1.73;;;45.40;36.90;;;;;;8297745;28;20043;-80
2022/08/04 13:58:44;;;;;;;3.92;1.63;;;46.40;32.80;;;;;;8297319;28;20030;-82
2022/08/04 14:02:51;;;;;;;1.90;1.45;;;47.00;33.60;;;;;;8306698;28;20021;-80
2022/08/04 14:07:02;;;;;;;1.60;1.50;;;46.60;32.30;;;;;;8301919;28;20029;-81
2022/08/04 14:11:04;;;;;;;2.17;1.95;;;46.80;33.50;;;;;;8306072;28;20022;-82
2022/08/04 14:15:05;;;;;;;1.90;1.70;;;46.80;33.70;;;;;;8301661;28;20037;-81
2022/08/04 14:19:06;;;;;;;3.47;1.92;;;47.20;32.10;;;;;;8298327;28;20029;-81
2022/08/04 14:23:06;;;;;;;3.22;2.00;;;47.30;33.20;;;;;;8303260;28;20510;-81
2022/08/04 14:27:07;;;;;;;2.50;2.03;;;47.60;38.10;;;;;;8298872;28;20485;-81
2022/08/04 14:31:23;;;;;;;2.97;2.03;;;47.60;33.30;;;;;;8303762;28;20022;-82
2022/08/04 14:35:25;;;;;;;2.53;1.88;;;47.70;33.20;;;;;;8296241;28;20045;-82
2022/08/04 14:39:45;;;;;;;7.18;2.00;;;47.40;31.20;;;;;;8312725;28;20491;-81
2022/08/04 14:43:57;;;;;;;3.38;1.80;;;47.80;32.30;;;;;;8313787;28;20485;-81
2022/08/04 14:47:59;;;;;;;2.90;1.67;;;48.00;30.80;;;;;;8310624;28;20068;-81
2022/08/04 14:52:01;;;;;;;2.35;1.58;;;47.10;32.20;;;;;;8314224;28;20486;-81
2022/08/04 14:56:03;;;;;;;2.58;1.60;;;45.70;33.00;;;;;;8303986;28;20509;-81
2022/08/04 15:00:04;;;;;;;2.25;1.45;;;45.30;32.10;;;;;;8295175;28;20057;-82
2022/08/04 15:04:06;;;;;;;2.92;1.50;;;45.40;34.00;;;;;;8294166;28;20628;-80
2022/08/04 15:08:07;;;;;;;1.48;1.35;;;46.00;30.90;;;;;;8298358;22;20043;-83
2022/08/04 15:12:09;;;;;;;2.90;1.35;;;46.40;30.40;;;;;;8267691;28;20022;-83
2022/08/04 15:16:11;;;;;;;1.38;1.27;;;46.30;29.50;;;;;;8253841;28;20080;-83
2022/08/04 15:20:12;;;;;;;1.88;1.60;;;47.10;31.90;;;;;;8247752;28;20026;-83
2022/08/04 15:24:13;;;;;;;1.98;1.30;;;47.50;30.30;;;;;;8255178;28;20034;-83
2022/08/04 15:28:21;;;;;;;2.65;1.52;;;47.60;31.50;;;;;;8254848;28;20113;-83
2022/08/04 15:32:23;;;;;;;1.60;1.50;;;43.80;33.90;;;;;;8264238;28;20426;-83
2022/08/04 15:36:36;;;;;;;2.50;1.50;;;43.00;39.00;;;;;;8248706;28;20262;-82
2022/08/04 15:40:45;;;;;;;1.63;1.52;;;40.30;35.80;;;;;;8266630;28;20023;-83
2022/08/04 15:45:17;;;;;;;1.70;1.57;;;41.00;37.50;;;;;;8267430;28;20397;-82
2022/08/04 15:49:22;;;;;;;2.70;1.52;;;40.20;36.80;;;;;;8268903;28;20089;-82
2022/08/04 15:53:46;;;;;;;2.15;1.50;;;37.90;42.90;;;;;;8257072;28;20439;-82
2022/08/04 15:58:00;;;;;;;2.38;1.33;;;36.10;43.00;;;;;;8226746;28;20403;-83
2022/08/04 16:02:28;;;;;;;1.40;1.30;;;35.30;42.60;;;;;;8268321;28;20214;-83
2022/08/04 16:06:29;;;;;;;5.32;1.65;;;34.60;44.40;;;;;;8273137;28;20494;-82
2022/08/04 16:10:29;;;;;;;4.25;1.60;;;34.10;44.90;;;;;;8267179;28;20085;-82
2022/08/04 16:14:31;;;;;;;1.75;1.60;;;33.70;50.10;;;;;;8267366;28;20025;-82
2022/08/04 16:18:31;;;;;;;4.18;1.77;;;33.40;51.20;;;;;;8269720;28;20061;-82
2022/08/04 16:22:39;;;;;;;1.60;1.50;;;33.10;53.60;;;;;;8263460;28;20033;-81
2022/08/04 16:26:43;;;;;;;2.33;1.63;;;32.60;54.60;;;;;;8263964;28;20110;-82
2022/08/04 16:30:43;;;;;;;3.88;1.90;;;32.30;54.30;;;;;;8261483;28;20095;-82
2022/08/04 16:35:02;;;;;;;2.72;1.70;;;32.30;52.10;;;;;;8266333;28;20033;-81
2022/08/04 16:39:03;;;;;;;1.83;1.67;;;32.20;56.60;;;;;;8265291;28;20113;-82
2022/08/04 16:43:13;;;;;;;2.53;1.70;;;32.10;55.40;;;;;;8247956;28;20022;-83
2022/08/04 16:47:45;;;;;;;2.50;1.58;;;32.00;53.90;;;;;;8263297;28;20076;-83
2022/08/04 16:51:48;;;;;;;4.78;2.20;;;32.10;56.10;;;;;;8263145;28;20050;-83
2022/08/04 16:55:54;;;;;;;4.05;1.90;;;32.80;54.70;;;;;;8264391;28;20022;-82
2022/08/04 16:59:55;;;;;;;4.03;2.38;;;33.70;50.10;;;;;;8263404;28;20027;-82
2022/08/04 17:03:57;;;;;;;2.63;2.10;;;33.30;55.90;;;;;;8263328;28;20026;-83
2022/08/04 17:07:59;;;;;;;8.68;2.60;;;32.80;56.80;;;;;;8245988;28;20057;-83
2022/08/04 17:12:01;;;;;;;3.58;1.90;;;32.00;58.30;;;;;;8263297;28;20050;-83
2022/08/04 17:16:05;;;;;;;5.90;2.22;;;31.50;62.40;;;;;;8245326;28;20104;-83
2022/08/04 17:20:06;;;;;;;2.15;1.95;;;30.80;62.60;;;;;;8245621;28;20080;-83
2022/08/04 17:24:06;;;;;;;2.33;2.05;;;30.30;67.80;;;;;;8245175;28;20560;-83
2022/08/04 17:28:07;;;;;;;4.18;2.40;;;30.00;64.20;;;;;;8245294;28;20085;-82
2022/08/04 17:32:12;;;;;;;3.55;2.47;;;29.90;75.80;;;;;;8243297;28;20026;-83
2022/08/04 17:36:15;;;;;;;3.45;2.20;;;29.40;72.30;;;;;;8245015;28;20026;-83
2022/08/04 17:40:15;;;;;;;2.30;2.10;;;29.10;72.90;;;;;;8244947;28;20022;-83
2022/08/04 17:44:16;;;;;;;7.35;2.50;;;28.90;73.20;;;;;;8244988;28;20018;-82
2022/08/04 17:48:19;;;;;;;4.57;2.50;;;29.00;73.50;;;;;;8246015;28;20061;-83
2022/08/04 17:52:20;;;;;;;2.25;2.03;;;29.20;74.60;;;;;;8245441;28;20085;-82
2022/08/04 17:56:32;;;;;;;2.45;2.17;;;29.20;75.40;;;;;;8244873;28;20050;-82
2022/08/04 18:00:34;;;;;;;7.35;2.05;;;28.90;77.40;;;;;;8274655;28;20053;-82
2022/08/04 18:04:42;;;;;;;3.45;2.20;;;28.70;78.10;;;;;;8243732;28;20021;-83
2022/08/04 18:08:42;;;;;;;8.05;2.30;;;28.50;81.70;;;;;;8263010;28;20490;-83
2022/08/04 18:12:44;;;;;;;7.68;2.42;;;28.30;82.80;;;;;;8251930;28;20030;-83
2022/08/04 18:16:45;;;;;;;7.22;2.30;;;28.00;83.50;;;;;;8253611;28;20558;-82
2022/08/04 18:20:45;;;;;;;5.60;2.58;;;27.90;85.60;;;;;;8256476;28;20077;-84
2022/08/04 18:24:46;;;;;;;2.63;2.35;;;27.80;88.00;;;;;;8254348;28;20048;-83
2022/08/04 18:28:46;;;;;;;4.70;2.25;;;27.60;90.70;;;;;;8277173;28;20023;-83
2022/08/04 18:32:47;;;;;;;5.28;2.90;;;27.60;91.30;;;;;;8242360;28;20031;-82
2022/08/04 18:36:48;;;;;;;5.68;3.20;;;27.40;91.40;;;;;;8245660;28;20034;-83
2022/08/04 18:40:49;;;;;;;7.88;3.80;;;27.20;92.50;;;;;;8273728;28;20061;-83
2022/08/04 18:44:49;;;;;;;7.15;4.15;;;26.90;94.70;;;;;;8252170;28;20033;-83
2022/08/04 18:48:50;;;;;;;8.25;4.20;;;26.40;99.90;;;;;;8247867;28;20054;-84
2022/08/04 18:52:51;;;;;;;5.30;4.30;;;25.70;99.90;;;;;;8255056;28;20121;-83
2022/08/04 18:56:52;;;;;;;6.03;4.32;;;25.40;99.90;;;;;;8252856;28;20406;-83
2022/08/04 19:00:54;;;;;;;6.65;3.85;;;25.40;99.90;;;;;;8253358;28;20042;-83
2022/08/04 19:04:55;;;;;;;5.55;3.63;;;25.40;99.90;;;;;;8270048;28;20546;-83
2022/08/04 19:08:55;;;;;;;4.15;3.53;;;25.10;99.90;;;;;;8283074;28;20042;-84
2022/08/04 19:12:56;;;;;;;3.65;3.33;;;24.80;99.90;;;;;;8270613;28;20454;-84
2022/08/04 19:16:56;;;;;;;3.38;3.08;;;24.80;99.90;;;;;;8278970;28;20018;-83
2022/08/04 19:20:58;;;;;;;8.40;3.05;;;24.90;99.90;;;;;;8286270;28;20068;-83
2022/08/04 19:24:58;;;;;;;4.68;3.75;;;24.90;99.90;;;;;;8282057;28;20026;-83
2022/08/04 19:28:59;;;;;;;5.13;3.60;;;24.80;99.90;;;;;;8270800;28;20350;-82
2022/08/04 19:32:59;;;;;;;7.88;3.40;;;24.40;99.90;;;;;;8267517;28;20117;-83
2022/08/04 19:37:00;;;;;;;9.27;3.50;;;24.10;99.90;;;;;;8277926;28;20027;-83
2022/08/04 19:41:03;;;;;;;7.50;3.40;;;24.10;99.90;;;;;;8255129;28;20018;-83
2022/08/04 19:45:05;;;;;;;11.50;4.00;;;24.10;99.90;;;;;;8255902;28;20157;-82
2022/08/04 19:49:05;;;;;;;8.50;3.92;;;23.90;99.90;;;;;;8256235;28;20521;-82
2022/08/04 19:53:06;;;;;;;10.35;4.00;;;23.70;99.90;;;;;;8254944;28;20050;-81
2022/08/04 19:57:07;;;;;;;7.68;3.65;;;23.50;99.90;;;;;;8255759;28;20022;-82
2022/08/04 20:01:07;;;;;;;8.23;3.67;;;23.40;99.90;;;;;;8255165;28;20023;-83
2022/08/04 20:05:08;;;;;;;13.38;3.55;;;23.20;99.90;;;;;;8272478;28;20049;-81
2022/08/04 20:09:09;;;;;;;7.30;3.80;;;23.10;99.90;;;;;;8267646;28;20033;-83
2022/08/04 20:13:10;;;;;;;9.20;4.18;;;22.80;99.90;;;;;;8254438;28;20053;-82
2022/08/04 20:17:10;;;;;;;12.40;4.30;;;22.40;99.90;;;;;;8254974;28;20022;-82
2022/08/04 20:21:11;;;;;;;7.95;3.35;;;22.60;99.90;;;;;;8274079;28;20048;-82
2022/08/04 20:25:11;;;;;;;8.65;3.53;;;22.50;99.90;;;;;;8256391;28;20030;-82
2022/08/04 20:29:12;;;;;;;5.32;3.90;;;22.40;99.90;;;;;;8255430;28;20022;-82
2022/08/04 20:33:13;;;;;;;5.47;3.55;;;22.30;99.90;;;;;;8254431;28;20402;-82
2022/08/04 20:37:14;;;;;;;4.47;3.72;;;22.20;99.90;;;;;;8272105;28;20505;-82
2022/08/04 20:41:14;;;;;;;4.38;3.80;;;22.20;99.90;;;;;;8252879;28;20398;-82
2022/08/04 20:45:15;;;;;;;3.53;3.22;;;22.10;99.90;;;;;;8272590;28;20054;-81
2022/08/04 20:49:16;;;;;;;4.05;3.17;;;22.00;99.90;;;;;;8253383;28;20034;-82
2022/08/04 20:53:16;;;;;;;8.95;3.75;;;21.90;99.90;;;;;;8252888;28;20100;-82
2022/08/04 20:57:17;;;;;;;7.82;3.83;;;21.90;99.90;;;;;;8270131;28;20033;-82
2022/08/04 21:01:17;;;;;;;8.38;4.07;;;21.80;99.90;;;;;;8251934;28;20045;-82
2022/08/04 21:05:18;;;;;;;6.28;3.70;;;21.80;99.90;;;;;;8253166;28;20023;-82
2022/08/04 21:09:19;;;;;;;9.23;3.90;;;21.80;99.90;;;;;;8282485;22;20068;-82
2022/08/04 21:13:19;;;;;;;8.63;4.10;;;21.80;99.90;;;;;;8325216;28;20017;-82
2022/08/04 21:17:20;;;;;;;10.15;4.10;;;21.70;99.90;;;;;;8324502;28;20105;-82
2022/08/04 21:21:20;;;;;;;7.30;4.07;;;21.40;99.90;;;;;;8324387;28;20025;-82
2022/08/04 21:25:21;;;;;;;5.05;4.20;;;21.20;99.90;;;;;;8323100;28;20446;-82
2022/08/04 21:29:22;;;;;;;6.15;3.92;;;21.00;99.90;;;;;;8323747;28;20025;-81
2022/08/04 21:33:24;;;;;;;8.00;3.97;;;20.80;99.90;;;;;;8323928;28;20101;-81